sensor_id;sensor_type;location;lat;lon;timestamp;pressure;altitude;pressure_sealevel;temperature;humidity
70943;BME280;59154;51.970;5.650;2022-12-07T00:00:05;101700;;;5.48688;94.7
70943;BME280;59154;51.970;5.650;2022-12-07T00:05:02;101700;;;5.42077;94.9
70943;BME280;59154;51.970;5.650;2022-12-07T00:10:04;101800;;;5.4106;95.1
70943;BME280;59154;51.970;5.650;2022-12-07T00:15:03;101700;;;5.42585;95.0
70943;BME280;59154;51.970;5.650;2022-12-07T00:20:05;101800;;;5.40551;95.1
70943;BME280;59154;51.970;5.650;2022-12-07T00:25:02;101700;;;5.35974;95.4
70943;BME280;59154;51.970;5.650;2022-12-07T00:30:03;101700;;;5.38008;94.9
70943;BME280;59154;51.970;5.650;2022-12-07T00:35:02;101700;;;5.39025;94.6
70943;BME280;59154;51.970;5.650;2022-12-07T00:40:04;101700;;;5.32923;94.7
70943;BME280;59154;51.970;5.650;2022-12-07T00:45:04;101700;;;5.32415;94.1
70943;BME280;59154;51.970;5.650;2022-12-07T00:50:03;101700;;;5.34449;93.6
70943;BME280;59154;51.970;5.650;2022-12-07T00:55:03;101700;;;5.28855;93.4
70943;BME280;59154;51.970;5.650;2022-12-07T01:00:04;101700;;;5.21735;93.9
70943;BME280;59154;51.970;5.650;2022-12-07T01:05:02;101700;;;5.10548;94.0
70943;BME280;59154;51.970;5.650;2022-12-07T01:10:03;101700;;;5.12073;93.3
70943;BME280;59154;51.970;5.650;2022-12-07T01:15:03;101700;;;5.12073;93.1
70943;BME280;59154;51.970;5.650;2022-12-07T01:20:04;101700;;;5.0648;92.8
70943;BME280;59154;51.970;5.650;2022-12-07T01:25:03;101700;;;4.93258;92.7
70943;BME280;59154;51.970;5.650;2022-12-07T01:30:05;101700;;;4.87156;94.0
70943;BME280;59154;51.970;5.650;2022-12-07T01:35:03;101700;;;4.8207;94.6
70943;BME280;59154;51.970;5.650;2022-12-07T01:40:05;101700;;;4.73425;95.5
70943;BME280;59154;51.970;5.650;2022-12-07T01:46:07;101700;;;4.60712;95.3
70943;BME280;59154;51.970;5.650;2022-12-07T01:50:04;101700;;;4.62746;95.4
70943;BME280;59154;51.970;5.650;2022-12-07T01:55:06;101700;;;4.63763;95.0
70943;BME280;59154;51.970;5.650;2022-12-07T02:00:06;101700;;;4.62746;95.3
70943;BME280;59154;51.970;5.650;2022-12-07T02:05:04;101700;;;4.57661;95.4
70943;BME280;59154;51.970;5.650;2022-12-07T02:10:13;101700;;;4.56135;95.6
70943;BME280;59154;51.970;5.650;2022-12-07T02:15:03;101700;;;4.62746;94.9
70943;BME280;59154;51.970;5.650;2022-12-07T02:20:17;101700;;;4.57661;94.3
70943;BME280;59154;51.970;5.650;2022-12-07T02:25:08;101700;;;4.57661;92.9
70943;BME280;59154;51.970;5.650;2022-12-07T02:30:05;101700;;;4.52576;93.0
70943;BME280;59154;51.970;5.650;2022-12-07T02:35:06;101700;;;4.45965;93.7
70943;BME280;59154;51.970;5.650;2022-12-07T02:40:09;101700;;;4.44948;93.8
70943;BME280;59154;51.970;5.650;2022-12-07T02:45:05;101700;;;4.34269;94.8
70943;BME280;59154;51.970;5.650;2022-12-07T02:50:04;101700;;;4.25115;95.5
70943;BME280;59154;51.970;5.650;2022-12-07T02:55:04;101700;;;4.38337;95.1
70943;BME280;59154;51.970;5.650;2022-12-07T03:00:06;101700;;;4.38846;95.0
70943;BME280;59154;51.970;5.650;2022-12-07T03:05:12;101700;;;4.61729;94.0
70943;BME280;59154;51.970;5.650;2022-12-07T03:10:07;101700;;;4.6478;93.8
70943;BME280;59154;51.970;5.650;2022-12-07T03:15:07;101700;;;4.73934;93.6
70943;BME280;59154;51.970;5.650;2022-12-07T03:20:06;101700;;;4.73934;93.4
70943;BME280;59154;51.970;5.650;2022-12-07T03:25:05;101700;;;4.96309;93.0
70943;BME280;59154;51.970;5.650;2022-12-07T03:30:05;101700;;;5.08514;92.8
70943;BME280;59154;51.970;5.650;2022-12-07T03:35:07;101700;;;5.12073;92.4
70943;BME280;59154;51.970;5.650;2022-12-07T03:40:08;101700;;;5.15125;92.5
70943;BME280;59154;51.970;5.650;2022-12-07T03:45:03;101700;;;5.14616;92.3
70943;BME280;59154;51.970;5.650;2022-12-07T03:50:07;101700;;;5.13599;92.7
70943;BME280;59154;51.970;5.650;2022-12-07T03:55:08;101700;;;5.1309;92.7
70943;BME280;59154;51.970;5.650;2022-12-07T04:00:06;101700;;;5.13599;92.6
70943;BME280;59154;51.970;5.650;2022-12-07T04:05:03;101700;;;5.06988;92.2
70943;BME280;59154;51.970;5.650;2022-12-07T04:10:03;101700;;;5.01394;92.2
70943;BME280;59154;51.970;5.650;2022-12-07T04:15:04;101700;;;4.92241;92.4
70943;BME280;59154;51.970;5.650;2022-12-07T04:20:04;101700;;;4.86138;92.6
70943;BME280;59154;51.970;5.650;2022-12-07T04:25:03;101700;;;4.6834;93.1
70943;BME280;59154;51.970;5.650;2022-12-07T04:30:04;101700;;;4.69357;93.1
70943;BME280;59154;51.970;5.650;2022-12-07T04:35:03;101700;;;4.6834;93.5
70943;BME280;59154;51.970;5.650;2022-12-07T04:40:03;101700;;;4.6834;93.6
70943;BME280;59154;51.970;5.650;2022-12-07T04:45:02;101700;;;4.78511;93.4
70943;BME280;59154;51.970;5.650;2022-12-07T04:50:03;101700;;;4.8207;93.1
70943;BME280;59154;51.970;5.650;2022-12-07T04:55:02;101700;;;4.86138;92.9
70943;BME280;59154;51.970;5.650;2022-12-07T05:00:04;101700;;;4.95292;92.6
70943;BME280;59154;51.970;5.650;2022-12-07T05:05:02;101700;;;4.98343;92.3
70943;BME280;59154;51.970;5.650;2022-12-07T05:10:03;101700;;;4.91732;92.7
70943;BME280;59154;51.970;5.650;2022-12-07T05:15:04;101700;;;4.91224;93.0
70943;BME280;59154;51.970;5.650;2022-12-07T05:20:05;101700;;;4.87156;93.4
70943;BME280;59154;51.970;5.650;2022-12-07T05:25:02;101700;;;4.89698;93.5
70943;BME280;59154;51.970;5.650;2022-12-07T05:30:04;101700;;;4.89698;93.2
70943;BME280;59154;51.970;5.650;2022-12-07T05:35:02;101700;;;4.84613;93.3
70943;BME280;59154;51.970;5.650;2022-12-07T05:40:03;101700;;;4.82579;93.3
70943;BME280;59154;51.970;5.650;2022-12-07T05:45:02;101700;;;4.79019;93.4
70943;BME280;59154;51.970;5.650;2022-12-07T05:50:04;101700;;;4.6834;93.8
70943;BME280;59154;51.970;5.650;2022-12-07T05:55:02;101700;;;4.63763;93.7
70943;BME280;59154;51.970;5.650;2022-12-07T06:00:05;101700;;;4.5461;93.8
70943;BME280;59154;51.970;5.650;2022-12-07T06:05:03;101700;;;4.48508;93.4
70943;BME280;59154;51.970;5.650;2022-12-07T06:10:03;101700;;;4.44439;93.1
70943;BME280;59154;51.970;5.650;2022-12-07T06:15:03;101700;;;4.5105;92.8
70943;BME280;59154;51.970;5.650;2022-12-07T06:20:05;101700;;;4.53593;92.6
70943;BME280;59154;51.970;5.650;2022-12-07T06:25:05;101700;;;4.50542;93.3
70943;BME280;59154;51.970;5.650;2022-12-07T06:30:04;101700;;;4.5461;93.6
70943;BME280;59154;51.970;5.650;2022-12-07T06:35:03;101700;;;4.56644;93.9
70943;BME280;59154;51.970;5.650;2022-12-07T06:40:04;101700;;;4.60204;94.0
70943;BME280;59154;51.970;5.650;2022-12-07T06:45:02;101700;;;4.68849;93.4
70943;BME280;59154;51.970;5.650;2022-12-07T06:50:04;101700;;;4.60204;93.8
70943;BME280;59154;51.970;5.650;2022-12-07T06:55:03;101700;;;4.62238;93.6
70943;BME280;59154;51.970;5.650;2022-12-07T07:00:04;101700;;;4.61729;93.5
70943;BME280;59154;51.970;5.650;2022-12-07T07:05:03;101700;;;4.57152;93.5
70943;BME280;59154;51.970;5.650;2022-12-07T07:10:03;101700;;;4.5461;93.5
70943;BME280;59154;51.970;5.650;2022-12-07T07:15:03;101700;;;4.49525;93.5
70943;BME280;59154;51.970;5.650;2022-12-07T07:20:04;101700;;;4.50542;93.5
70943;BME280;59154;51.970;5.650;2022-12-07T07:25:03;101700;;;4.47999;93.7
70943;BME280;59154;51.970;5.650;2022-12-07T07:30:03;101700;;;4.48508;93.9
70943;BME280;59154;51.970;5.650;2022-12-07T07:35:03;101700;;;4.53593;93.5
70943;BME280;59154;51.970;5.650;2022-12-07T07:40:04;101700;;;4.33252;93.9
70943;BME280;59154;51.970;5.650;2022-12-07T07:45:03;101700;;;4.38337;93.2
70943;BME280;59154;51.970;5.650;2022-12-07T07:50:04;101700;;;4.39863;92.9
70943;BME280;59154;51.970;5.650;2022-12-07T07:55:03;101700;;;4.34269;92.9
70943;BME280;59154;51.970;5.650;2022-12-07T08:00:06;101700;;;4.32743;92.8
70943;BME280;59154;51.970;5.650;2022-12-07T08:05:03;101700;;;4.2715;92.7
70943;BME280;59154;51.970;5.650;2022-12-07T08:10:04;101700;;;4.29692;92.5
70943;BME280;59154;51.970;5.650;2022-12-07T08:15:03;101700;;;4.28675;92.6
70943;BME280;59154;51.970;5.650;2022-12-07T08:20:04;101700;;;4.32235;92.4
70943;BME280;59154;51.970;5.650;2022-12-07T08:25:02;101700;;;4.34777;92.4
70943;BME280;59154;51.970;5.650;2022-12-07T08:30:04;101700;;;4.4088;92.5
70943;BME280;59154;51.970;5.650;2022-12-07T08:35:02;101700;;;4.57661;92.2
70943;BME280;59154;51.970;5.650;2022-12-07T08:40:05;101700;;;4.57661;92.5
70943;BME280;59154;51.970;5.650;2022-12-07T08:45:02;101700;;;4.77494;92.3
70943;BME280;59154;51.970;5.650;2022-12-07T08:50:06;101700;;;4.93766;91.8
70943;BME280;59154;51.970;5.650;2022-12-07T08:55:03;101700;;;5.00377;91.8
70943;BME280;59154;51.970;5.650;2022-12-07T09:00:04;101700;;;5.08514;91.8
70943;BME280;59154;51.970;5.650;2022-12-07T09:05:03;101700;;;5.19193;91.7
70943;BME280;59154;51.970;5.650;2022-12-07T09:10:04;101700;;;5.28855;91.4
70943;BME280;59154;51.970;5.650;2022-12-07T09:15:03;101700;;;5.32923;91.8
70943;BME280;59154;51.970;5.650;2022-12-07T09:20:04;101700;;;5.47162;92.0
70943;BME280;59154;51.970;5.650;2022-12-07T09:25:03;101700;;;5.60384;91.4
70943;BME280;59154;51.970;5.650;2022-12-07T09:30:04;101700;;;5.5835;91.2
70943;BME280;59154;51.970;5.650;2022-12-07T09:35:03;101700;;;5.55298;91.4
70943;BME280;59154;51.970;5.650;2022-12-07T09:40:04;101700;;;5.49196;91.3
70943;BME280;59154;51.970;5.650;2022-12-07T09:45:05;101700;;;5.56315;91.0
70943;BME280;59154;51.970;5.650;2022-12-07T09:50:05;101700;;;5.58858;90.9
70943;BME280;59154;51.970;5.650;2022-12-07T09:55:03;101700;;;5.65978;90.8
70943;BME280;59154;51.970;5.650;2022-12-07T10:00:10;101700;;;5.73606;91.0
70943;BME280;59154;51.970;5.650;2022-12-07T10:05:05;101700;;;5.95981;91.0
70943;BME280;59154;51.970;5.650;2022-12-07T10:10:04;101700;;;6.15305;90.6
70943;BME280;59154;51.970;5.650;2022-12-07T10:15:04;101700;;;6.18865;90.0
70943;BME280;59154;51.970;5.650;2022-12-07T10:20:23;101700;;;6.2751;90.1
70943;BME280;59154;51.970;5.650;2022-12-07T10:25:08;101700;;;6.42766;89.4
70943;BME280;59154;51.970;5.650;2022-12-07T10:30:08;101700;;;6.42766;89.3
70943;BME280;59154;51.970;5.650;2022-12-07T10:35:42;101700;;;6.52937;89.3
70943;BME280;59154;51.970;5.650;2022-12-07T10:40:24;101700;;;6.57005;88.4
70943;BME280;59154;51.970;5.650;2022-12-07T10:45:14;101600;;;6.67176;88.9
70943;BME280;59154;51.970;5.650;2022-12-07T10:50:17;101600;;;6.63616;88.7
70943;BME280;59154;51.970;5.650;2022-12-07T10:55:11;101600;;;6.48869;87.9
70943;BME280;59154;51.970;5.650;2022-12-07T11:00:13;101600;;;6.5192;87.9
70943;BME280;59154;51.970;5.650;2022-12-07T11:05:10;101600;;;6.74804;87.8
70943;BME280;59154;51.970;5.650;2022-12-07T11:10:09;101600;;;6.70227;88.5
70943;BME280;59154;51.970;5.650;2022-12-07T11:15:08;101600;;;6.61073;89.6
70943;BME280;59154;51.970;5.650;2022-12-07T11:20:15;101600;;;6.60056;90.2
70943;BME280;59154;51.970;5.650;2022-12-07T11:25:16;101600;;;6.85992;89.6
70943;BME280;59154;51.970;5.650;2022-12-07T11:30:11;101600;;;6.74804;89.9
70943;BME280;59154;51.970;5.650;2022-12-07T11:35:07;101600;;;6.79889;90.0
70943;BME280;59154;51.970;5.650;2022-12-07T11:40:05;101600;;;6.9006;89.8
70943;BME280;59154;51.970;5.650;2022-12-07T11:45:10;101600;;;7.04808;88.9
70943;BME280;59154;51.970;5.650;2022-12-07T11:50:21;101600;;;7.13961;87.6
70943;BME280;59154;51.970;5.650;2022-12-07T11:55:05;101600;;;7.25149;88.1
70943;BME280;59154;51.970;5.650;2022-12-07T12:00:06;101600;;;7.19555;87.1
70943;BME280;59154;51.970;5.650;2022-12-07T12:05:13;101600;;;7.01248;88.1
70943;BME280;59154;51.970;5.650;2022-12-07T12:10:07;101600;;;6.98705;88.8
70943;BME280;59154;51.970;5.650;2022-12-07T12:15:15;101600;;;6.96671;89.0
70943;BME280;59154;51.970;5.650;2022-12-07T12:20:06;101600;;;6.9362;88.8
70943;BME280;59154;51.970;5.650;2022-12-07T12:25:06;101600;;;6.93111;88.8
70943;BME280;59154;51.970;5.650;2022-12-07T12:30:07;101600;;;6.95146;88.7
70943;BME280;59154;51.970;5.650;2022-12-07T12:35:27;101600;;;6.98705;88.8
70943;BME280;59154;51.970;5.650;2022-12-07T12:41:51;101600;;;7.03791;88.2
70943;BME280;59154;51.970;5.650;2022-12-07T12:45:17;101500;;;7.0735;87.7
70943;BME280;59154;51.970;5.650;2022-12-07T12:50:15;101500;;;7.17013;86.8
70943;BME280;59154;51.970;5.650;2022-12-07T12:55:14;101500;;;7.27692;86.8
70943;BME280;59154;51.970;5.650;2022-12-07T13:00:16;101500;;;7.13453;85.2
70943;BME280;59154;51.970;5.650;2022-12-07T13:05:14;101500;;;7.30235;85.4
70943;BME280;59154;51.970;5.650;2022-12-07T13:10:03;101500;;;7.28709;85.0
70943;BME280;59154;51.970;5.650;2022-12-07T13:15:02;101500;;;7.54136;84.8
70943;BME280;59154;51.970;5.650;2022-12-07T13:20:05;101500;;;7.71427;84.8
70943;BME280;59154;51.970;5.650;2022-12-07T13:25:07;101500;;;7.80072;84.3
70943;BME280;59154;51.970;5.650;2022-12-07T13:30:12;101500;;;7.89734;84.0
70943;BME280;59154;51.970;5.650;2022-12-07T13:35:27;101500;;;7.93294;83.5
70943;BME280;59154;51.970;5.650;2022-12-07T13:40:17;101500;;;8.09568;83.8
70943;BME280;59154;51.970;5.650;2022-12-07T13:45:20;101500;;;8.15162;83.4
70943;BME280;59154;51.970;5.650;2022-12-07T13:50:22;101500;;;8.25332;83.3
70943;BME280;59154;51.970;5.650;2022-12-07T13:55:14;101500;;;8.18213;83.8
70943;BME280;59154;51.970;5.650;2022-12-07T14:00:05;101500;;;7.8414;84.8
70943;BME280;59154;51.970;5.650;2022-12-07T14:05:09;101500;;;7.48542;81.9
70943;BME280;59154;51.970;5.650;2022-12-07T14:10:05;101500;;;7.58205;81.5
70943;BME280;59154;51.970;5.650;2022-12-07T14:15:03;101500;;;7.50576;80.4
70943;BME280;59154;51.970;5.650;2022-12-07T14:25:16;101400;;;7.54645;81.8
70943;BME280;59154;51.970;5.650;2022-12-07T14:30:04;101400;;;7.51594;83.4
70943;BME280;59154;51.970;5.650;2022-12-07T14:35:09;101400;;;7.52102;84.4
70943;BME280;59154;51.970;5.650;2022-12-07T14:40:04;101400;;;7.47017;85.3
70943;BME280;59154;51.970;5.650;2022-12-07T14:45:03;101400;;;7.29726;86.4
70943;BME280;59154;51.970;5.650;2022-12-07T14:50:03;101400;;;7.22607;86.3
70943;BME280;59154;51.970;5.650;2022-12-07T14:55:03;101400;;;7.24132;86.4
70943;BME280;59154;51.970;5.650;2022-12-07T15:00:04;101400;;;7.13961;86.6
70943;BME280;59154;51.970;5.650;2022-12-07T15:05:03;101400;;;7.08368;87.0
70943;BME280;59154;51.970;5.650;2022-12-07T15:10:03;101400;;;7.07859;86.7
70943;BME280;59154;51.970;5.650;2022-12-07T15:15:03;101400;;;7.03282;86.4
70943;BME280;59154;51.970;5.650;2022-12-07T15:20:04;101400;;;7.01757;86.3
70943;BME280;59154;51.970;5.650;2022-12-07T15:25:02;101400;;;6.87517;86.0
70943;BME280;59154;51.970;5.650;2022-12-07T15:30:03;101400;;;6.87009;86.0
70943;BME280;59154;51.970;5.650;2022-12-07T15:35:02;101400;;;6.87517;85.8
70943;BME280;59154;51.970;5.650;2022-12-07T15:40:03;101400;;;6.80398;85.8
70943;BME280;59154;51.970;5.650;2022-12-07T15:45:04;101400;;;6.76838;85.5
70943;BME280;59154;51.970;5.650;2022-12-07T15:50:06;101400;;;6.77347;85.7
70943;BME280;59154;51.970;5.650;2022-12-07T15:55:03;101400;;;6.67176;85.0
70943;BME280;59154;51.970;5.650;2022-12-07T16:00:03;101400;;;6.61582;85.3
70943;BME280;59154;51.970;5.650;2022-12-07T16:05:03;101400;;;6.61073;85.7
70943;BME280;59154;51.970;5.650;2022-12-07T16:10:03;101400;;;6.49886;85.7
70943;BME280;59154;51.970;5.650;2022-12-07T16:15:03;101400;;;6.46326;86.1
70943;BME280;59154;51.970;5.650;2022-12-07T16:20:04;101400;;;6.40732;86.2
70943;BME280;59154;51.970;5.650;2022-12-07T16:25:03;101400;;;6.50394;86.3
70943;BME280;59154;51.970;5.650;2022-12-07T16:30:03;101400;;;6.49377;86.4
70943;BME280;59154;51.970;5.650;2022-12-07T16:35:03;101400;;;6.40223;86.6
70943;BME280;59154;51.970;5.650;2022-12-07T16:40:05;101400;;;6.32595;86.8
70943;BME280;59154;51.970;5.650;2022-12-07T16:45:03;101400;;;6.34121;86.9
70943;BME280;59154;51.970;5.650;2022-12-07T16:50:03;101400;;;6.28527;87.1
70943;BME280;59154;51.970;5.650;2022-12-07T16:55:02;101400;;;6.30561;87.1
70943;BME280;59154;51.970;5.650;2022-12-07T17:00:04;101400;;;6.24967;87.4
70943;BME280;59154;51.970;5.650;2022-12-07T17:05:03;101400;;;6.2395;87.8
70943;BME280;59154;51.970;5.650;2022-12-07T17:10:04;101400;;;6.26493;87.9
70943;BME280;59154;51.970;5.650;2022-12-07T17:15:03;101400;;;6.27002;88.0
70943;BME280;59154;51.970;5.650;2022-12-07T17:20:04;101400;;;6.19374;88.2
70943;BME280;59154;51.970;5.650;2022-12-07T17:25:03;101300;;;6.16322;88.4
70943;BME280;59154;51.970;5.650;2022-12-07T17:30:03;101300;;;6.15814;88.4
70943;BME280;59154;51.970;5.650;2022-12-07T17:35:03;101300;;;6.11237;88.3
70943;BME280;59154;51.970;5.650;2022-12-07T17:40:05;101300;;;6.12763;88.0
70943;BME280;59154;51.970;5.650;2022-12-07T17:45:03;101300;;;6.11237;87.8
70943;BME280;59154;51.970;5.650;2022-12-07T17:50:04;101300;;;6.07169;87.9
70943;BME280;59154;51.970;5.650;2022-12-07T17:55:03;101300;;;6.00049;88.1
70943;BME280;59154;51.970;5.650;2022-12-07T18:00:05;101300;;;6.031;88.2
70943;BME280;59154;51.970;5.650;2022-12-07T18:05:02;101300;;;6.02083;87.3
70943;BME280;59154;51.970;5.650;2022-12-07T18:10:04;101300;;;6.01066;87.0
70943;BME280;59154;51.970;5.650;2022-12-07T18:15:03;101300;;;5.94455;86.4
70943;BME280;59154;51.970;5.650;2022-12-07T18:20:05;101300;;;5.9293;86.3
70943;BME280;59154;51.970;5.650;2022-12-07T18:25:03;101300;;;5.53773;89.1
70943;BME280;59154;51.970;5.650;2022-12-07T18:30:03;101300;;;5.66486;88.1
70943;BME280;59154;51.970;5.650;2022-12-07T18:35:02;101300;;;5.81742;87.5
70943;BME280;59154;51.970;5.650;2022-12-07T18:40:04;101300;;;5.9293;87.9
70943;BME280;59154;51.970;5.650;2022-12-07T18:45:03;101300;;;5.99032;88.4
70943;BME280;59154;51.970;5.650;2022-12-07T18:50:03;101300;;;5.94964;88.3
70943;BME280;59154;51.970;5.650;2022-12-07T18:55:03;101300;;;5.95981;88.2
70943;BME280;59154;51.970;5.650;2022-12-07T19:00:04;101300;;;5.97507;88.5
70943;BME280;59154;51.970;5.650;2022-12-07T19:05:02;101300;;;5.9293;88.5
70943;BME280;59154;51.970;5.650;2022-12-07T19:10:03;101300;;;5.88353;88.9
70943;BME280;59154;51.970;5.650;2022-12-07T19:15:04;101300;;;5.94964;88.9
70943;BME280;59154;51.970;5.650;2022-12-07T19:20:05;101300;;;5.96998;89.2
70943;BME280;59154;51.970;5.650;2022-12-07T19:25:04;101300;;;6.01066;89.1
70943;BME280;59154;51.970;5.650;2022-12-07T19:30:04;101300;;;5.99032;89.0
70943;BME280;59154;51.970;5.650;2022-12-07T19:35:02;101300;;;6.02083;88.7
70943;BME280;59154;51.970;5.650;2022-12-07T19:40:05;101300;;;6.01066;88.7
70943;BME280;59154;51.970;5.650;2022-12-07T19:45:03;101300;;;6.05135;89.2
70943;BME280;59154;51.970;5.650;2022-12-07T19:50:03;101300;;;6.08186;89.4
70943;BME280;59154;51.970;5.650;2022-12-07T19:55:03;101300;;;6.01575;89.5
70943;BME280;59154;51.970;5.650;2022-12-07T20:00:05;101300;;;6.11237;89.6
70943;BME280;59154;51.970;5.650;2022-12-07T20:05:03;101300;;;6.11237;89.7
70943;BME280;59154;51.970;5.650;2022-12-07T20:10:03;101200;;;6.08186;90.2
70943;BME280;59154;51.970;5.650;2022-12-07T20:15:03;101200;;;6.09203;90.1
70943;BME280;59154;51.970;5.650;2022-12-07T20:20:04;101200;;;6.04118;90.5
70943;BME280;59154;51.970;5.650;2022-12-07T20:25:03;101200;;;6.04118;90.3
70943;BME280;59154;51.970;5.650;2022-12-07T20:30:03;101200;;;6.00049;90.4
70943;BME280;59154;51.970;5.650;2022-12-07T20:35:02;101200;;;5.95472;90.6
70943;BME280;59154;51.970;5.650;2022-12-07T20:40:04;101200;;;5.94964;90.7
70943;BME280;59154;51.970;5.650;2022-12-07T20:45:03;101200;;;5.83268;91.0
70943;BME280;59154;51.970;5.650;2022-12-07T20:50:04;101200;;;5.87844;90.9
70943;BME280;59154;51.970;5.650;2022-12-07T20:55:03;101200;;;5.89879;90.8
70943;BME280;59154;51.970;5.650;2022-12-07T21:00:04;101200;;;5.79708;90.7
70943;BME280;59154;51.970;5.650;2022-12-07T21:05:02;101200;;;5.73097;91.1
70943;BME280;59154;51.970;5.650;2022-12-07T21:10:04;101200;;;5.79199;91.1
70943;BME280;59154;51.970;5.650;2022-12-07T21:15:03;101200;;;5.74623;91.1
70943;BME280;59154;51.970;5.650;2022-12-07T21:20:04;101200;;;5.70554;91.2
70943;BME280;59154;51.970;5.650;2022-12-07T21:25:03;101200;;;5.64452;91.5
70943;BME280;59154;51.970;5.650;2022-12-07T21:30:04;101200;;;5.6852;91.3
70943;BME280;59154;51.970;5.650;2022-12-07T21:35:03;101200;;;5.62418;91.6
70943;BME280;59154;51.970;5.650;2022-12-07T21:40:04;101200;;;5.68012;91.3
70943;BME280;59154;51.970;5.650;2022-12-07T21:45:03;101200;;;5.6852;91.4
70943;BME280;59154;51.970;5.650;2022-12-07T21:50:03;101200;;;5.70554;91.1
70943;BME280;59154;51.970;5.650;2022-12-07T21:55:03;101200;;;5.64452;91.2
70943;BME280;59154;51.970;5.650;2022-12-07T22:00:05;101200;;;5.60892;91.4
70943;BME280;59154;51.970;5.650;2022-12-07T22:05:03;101100;;;5.62926;91.3
70943;BME280;59154;51.970;5.650;2022-12-07T22:10:05;101100;;;5.52247;91.5
70943;BME280;59154;51.970;5.650;2022-12-07T22:15:02;101100;;;5.50213;91.9
70943;BME280;59154;51.970;5.650;2022-12-07T22:20:04;101100;;;5.50722;91.8
70943;BME280;59154;51.970;5.650;2022-12-07T22:25:03;101100;;;5.5479;91.9
70943;BME280;59154;51.970;5.650;2022-12-07T22:30:05;101100;;;5.5479;92.0
70943;BME280;59154;51.970;5.650;2022-12-07T22:35:03;101100;;;5.53773;92.1
70943;BME280;59154;51.970;5.650;2022-12-07T22:40:04;101100;;;5.50722;92.2
70943;BME280;59154;51.970;5.650;2022-12-07T22:45:03;101100;;;5.45636;92.3
70943;BME280;59154;51.970;5.650;2022-12-07T22:50:04;101100;;;5.5123;92.1
70943;BME280;59154;51.970;5.650;2022-12-07T22:55:02;101100;;;5.43094;92.3
70943;BME280;59154;51.970;5.650;2022-12-07T23:00:05;101100;;;5.38517;92.3
70943;BME280;59154;51.970;5.650;2022-12-07T23:05:03;101100;;;5.38008;92.0
70943;BME280;59154;51.970;5.650;2022-12-07T23:10:04;101100;;;5.42585;92.1
70943;BME280;59154;51.970;5.650;2022-12-07T23:15:03;101100;;;5.39534;92.2
70943;BME280;59154;51.970;5.650;2022-12-07T23:20:04;101100;;;5.46653;92.0
70943;BME280;59154;51.970;5.650;2022-12-07T23:25:03;101100;;;5.53264;91.8
70943;BME280;59154;51.970;5.650;2022-12-07T23:30:04;101100;;;5.54281;91.9
70943;BME280;59154;51.970;5.650;2022-12-07T23:35:02;101100;;;5.55807;91.8
70943;BME280;59154;51.970;5.650;2022-12-07T23:40:04;101100;;;5.56315;91.5
70943;BME280;59154;51.970;5.650;2022-12-07T23:45:04;101100;;;5.62926;91.5
70943;BME280;59154;51.970;5.650;2022-12-07T23:50:04;101100;;;5.6852;91.4
70943;BME280;59154;51.970;5.650;2022-12-07T23:55:02;101100;;;5.67503;91.6
